createdAt,value
2018-01-17T00:05:28.791Z,2.67
2018-01-17T00:15:28.924Z,2.66
2018-01-17T00:25:28.848Z,2.63
2018-01-17T00:35:28.894Z,2.74
2018-01-17T00:45:28.918Z,2.76
2018-01-17T00:55:28.888Z,2.66
2018-01-17T01:05:28.918Z,2.73
2018-01-17T01:15:28.850Z,2.85
2018-01-17T01:25:28.908Z,3.25
2018-01-17T01:35:28.871Z,3.42
2018-01-17T01:45:28.985Z,3.54
2018-01-17T01:55:28.890Z,2.89
2018-01-17T02:05:28.939Z,2.79
2018-01-17T02:15:28.922Z,2.77
2018-01-17T02:25:28.983Z,2.49
2018-01-17T02:35:28.956Z,2.28
2018-01-17T02:45:29.027Z,2.26
2018-01-17T02:55:29.015Z,2.16
2018-01-17T03:05:28.942Z,2.15
2018-01-17T03:15:29.005Z,2.1
2018-01-17T03:25:28.965Z,2.17
2018-01-17T03:35:29.029Z,2.17
2018-01-17T03:45:28.983Z,2.45
2018-01-17T03:55:29.056Z,2.19
2018-01-17T04:05:29.021Z,2.2
2018-01-17T04:15:29.063Z,2.1
2018-01-17T04:25:29.022Z,2.02
2018-01-17T04:35:29.073Z,2.09
2018-01-17T04:45:29.021Z,2.06
2018-01-17T04:55:29.102Z,1.98
2018-01-17T05:05:29.089Z,2.09
2018-01-17T05:15:29.077Z,2.26
2018-01-17T05:25:29.082Z,2.17
2018-01-17T05:35:29.072Z,2.38
2018-01-17T05:45:29.119Z,2.37
2018-01-17T05:55:29.079Z,2.56
2018-01-17T06:05:29.162Z,2.58
2018-01-17T06:15:29.077Z,2.56
2018-01-17T06:25:29.115Z,2.71
2018-01-17T06:35:29.114Z,2.71
2018-01-17T06:45:29.096Z,2.71
2018-01-17T06:55:29.150Z,2.76
2018-01-17T07:05:29.112Z,2.82
2018-01-17T07:15:29.176Z,2.79
2018-01-17T07:25:29.134Z,2.81
2018-01-17T07:35:29.191Z,2.91
2018-01-17T07:45:29.166Z,2.94
2018-01-17T07:55:29.222Z,2.82
2018-01-17T08:05:29.166Z,2.4
2018-01-17T08:15:29.251Z,2.1
2018-01-17T08:25:29.229Z,2.08
2018-01-17T08:35:29.153Z,1.89
2018-01-17T08:45:29.223Z,1.87
2018-01-17T08:55:29.251Z,1.98
2018-01-17T09:05:29.291Z,2.1
2018-01-17T09:15:29.383Z,2.17
2018-01-17T09:25:29.280Z,2.15
2018-01-17T09:35:29.321Z,2.28
2018-01-17T09:45:29.356Z,2.28
2018-01-17T09:56:17.192Z,2.64
2018-01-17T10:06:17.194Z,2.76
2018-01-17T10:16:17.220Z,2.84
2018-01-17T10:26:17.167Z,2.98
2018-01-17T10:36:17.220Z,3.18
2018-01-17T10:46:17.102Z,3.44
2018-01-17T10:56:17.164Z,3.62
2018-01-17T11:06:17.223Z,3.83
2018-01-17T11:16:17.183Z,3.9
2018-01-17T11:26:17.237Z,3.57
2018-01-17T11:36:17.221Z,3.72
2018-01-17T11:46:17.169Z,3.82
2018-01-17T11:56:17.105Z,3.98
2018-01-17T12:06:17.128Z,4
2018-01-17T12:16:17.192Z,3.9
2018-01-17T12:26:17.179Z,3.67
2018-01-17T12:36:17.211Z,3.58
2018-01-17T12:46:17.133Z,3.27
2018-01-17T12:56:17.229Z,2.89
2018-01-17T13:06:17.220Z,2.44
2018-01-17T13:16:17.207Z,2.46
2018-01-17T13:26:17.172Z,2.4
2018-01-17T14:16:27.828Z,3.02
2018-01-17T14:46:24.921Z,3.25
2018-01-17T14:56:28.542Z,3.44
2018-01-17T15:26:20.479Z,3.43
2018-01-17T15:36:21.312Z,3.62
2018-01-17T15:46:18.776Z,3.8
2018-01-17T15:56:18.271Z,4.08
2018-01-17T16:06:21.564Z,4.12
2018-01-17T16:16:17.211Z,4.08
2018-01-17T16:26:17.159Z,4.14
2018-01-17T16:36:17.073Z,4.01
2018-01-17T16:46:17.150Z,4
2018-01-17T16:56:17.096Z,3.92
2018-01-17T17:06:17.202Z,3.9
2018-01-17T17:16:17.167Z,4.14
2018-01-17T17:26:17.101Z,3.88
2018-01-17T17:36:17.098Z,4.24
2018-01-17T17:46:17.104Z,3.61
2018-01-17T17:56:17.069Z,3.27
2018-01-17T18:06:17.169Z,2.98
2018-01-17T18:16:17.121Z,3.21
2018-01-17T18:26:17.039Z,3.36
2018-01-17T18:36:17.162Z,3.52
2018-01-17T18:46:17.098Z,3.72
2018-01-17T18:56:17.054Z,3.76
2018-01-17T19:06:17.046Z,3.94
2018-01-17T19:16:21.393Z,4.03
2018-01-17T19:26:21.226Z,4.32
2018-01-17T19:46:29.793Z,4.39
2018-01-17T19:56:31.588Z,4.21
2018-01-17T20:06:32.256Z,4.19
2018-01-17T20:16:19.075Z,4.4
2018-01-17T20:26:17.054Z,4.36
2018-01-17T20:36:21.664Z,4.47
2018-01-17T20:46:17.173Z,4.5
2018-01-17T20:56:20.710Z,4.39
2018-01-17T21:06:24.895Z,4.5
2018-01-17T21:16:19.248Z,4.34
2018-01-17T21:26:20.588Z,4.37
2018-01-17T21:36:18.025Z,4.24
2018-01-17T21:46:21.156Z,4.29
2018-01-17T21:56:27.820Z,4.15
2018-01-17T22:06:29.552Z,4.04
2018-01-17T22:16:21.899Z,4.1
2018-01-17T22:26:20.662Z,4.03
2018-01-17T22:36:21.052Z,3.83
2018-01-17T23:26:22.924Z,3.52
2018-01-17T23:46:33.431Z,3.57
